createdAt,value
2018-05-16T00:00:34.287Z,16.54
2018-05-16T00:03:02.053Z,16.43
2018-05-16T00:05:29.813Z,16.34
2018-05-16T00:07:57.527Z,16.27
2018-05-16T00:10:25.240Z,16.18
2018-05-16T00:12:52.999Z,16.10
2018-05-16T00:15:20.872Z,16.08
2018-05-16T00:17:48.596Z,16.11
2018-05-16T00:20:16.300Z,16.15
2018-05-16T00:22:43.958Z,16.30
2018-05-16T00:25:11.769Z,16.31
2018-05-16T00:27:39.586Z,16.31
2018-05-16T00:30:07.555Z,16.27
2018-05-16T00:32:35.329Z,16.26
2018-05-16T00:35:03.136Z,16.23
2018-05-16T00:37:30.903Z,16.25
2018-05-16T00:39:58.646Z,16.29
2018-05-16T00:42:26.384Z,16.31
2018-05-16T00:44:54.152Z,16.32
2018-05-16T00:47:21.872Z,16.36
2018-05-16T00:49:49.678Z,16.20
2018-05-16T00:52:17.406Z,16.17
2018-05-16T00:54:45.207Z,16.21
2018-05-16T00:57:12.972Z,16.18
2018-05-16T00:59:40.741Z,16.06
2018-05-16T01:02:08.606Z,15.99
2018-05-16T01:04:36.436Z,15.93
2018-05-16T01:07:04.135Z,15.76
2018-05-16T01:09:32.006Z,15.71
2018-05-16T01:11:59.866Z,15.68
2018-05-16T01:14:27.631Z,15.37
2018-05-16T01:16:55.517Z,15.22
2018-05-16T01:19:23.266Z,15.14
2018-05-16T01:21:51.129Z,15.07
2018-05-16T01:24:18.899Z,15.07
2018-05-16T01:26:46.760Z,15.14
2018-05-16T01:29:14.524Z,15.21
2018-05-16T01:31:42.282Z,15.00
2018-05-16T01:34:10.054Z,14.86
2018-05-16T01:36:37.922Z,14.85
2018-05-16T01:39:05.684Z,14.73
2018-05-16T01:41:33.654Z,14.68
2018-05-16T01:44:01.315Z,14.47
2018-05-16T01:46:29.083Z,14.35
2018-05-16T01:49:08.708Z,14.47
2018-05-16T01:51:36.553Z,14.49
2018-05-16T01:54:04.517Z,14.55
2018-05-16T01:56:32.216Z,14.36
2018-05-16T01:58:59.986Z,14.46
2018-05-16T02:01:27.752Z,14.33
2018-05-16T02:03:55.514Z,14.14
2018-05-16T02:06:23.225Z,14.09
2018-05-16T02:08:51.352Z,14.06
2018-05-16T02:11:19.116Z,14.07
2018-05-16T02:13:46.775Z,14.12
2018-05-16T02:16:14.542Z,14.11
2018-05-16T02:18:42.308Z,14.05
2018-05-16T02:21:10.024Z,13.96
2018-05-16T02:23:37.839Z,14.03
2018-05-16T02:26:05.540Z,14.04
2018-05-16T02:28:33.264Z,13.98
2018-05-16T02:31:01.748Z,14.06
2018-05-16T02:33:29.614Z,13.95
2018-05-16T02:35:57.480Z,13.94
2018-05-16T02:38:25.243Z,13.78
2018-05-16T02:40:53.155Z,13.65
2018-05-16T02:43:20.980Z,13.42
2018-05-16T02:45:48.846Z,13.40
2018-05-16T02:48:16.608Z,13.50
2018-05-16T02:50:44.479Z,13.48
2018-05-16T02:53:12.215Z,13.46
2018-05-16T02:55:40.004Z,13.45
2018-05-16T02:58:07.667Z,13.46
2018-05-16T03:00:35.637Z,13.43
2018-05-16T03:03:03.404Z,13.58
2018-05-16T03:05:31.275Z,13.63
2018-05-16T03:07:59.033Z,13.59
2018-05-16T03:10:26.900Z,13.50
2018-05-16T03:12:54.649Z,13.35
2018-05-16T03:15:22.429Z,13.34
2018-05-16T03:17:50.382Z,13.32
2018-05-16T03:20:18.165Z,13.43
2018-05-16T03:22:45.892Z,13.42
2018-05-16T03:25:13.692Z,13.34
2018-05-16T03:27:41.423Z,13.44
2018-05-16T03:30:09.432Z,13.53
2018-05-16T03:32:37.276Z,13.58
2018-05-16T03:35:05.120Z,13.72
2018-05-16T03:37:32.929Z,13.77
2018-05-16T03:40:00.804Z,13.76
2018-05-16T03:42:28.493Z,13.83
2018-05-16T03:44:56.313Z,13.90
2018-05-16T03:47:24.154Z,13.97
2018-05-16T03:49:51.959Z,13.98
2018-05-16T03:52:19.761Z,14.04
2018-05-16T03:54:47.581Z,14.08
2018-05-16T03:57:27.327Z,14.13
2018-05-16T04:00:07.160Z,14.10
2018-05-16T04:02:46.826Z,14.12
2018-05-16T04:05:14.630Z,14.18
2018-05-16T04:07:42.341Z,14.25
2018-05-16T04:10:10.215Z,14.22
2018-05-16T04:12:38.117Z,14.25
2018-05-16T04:15:05.947Z,14.13
2018-05-16T04:17:33.814Z,14.18
2018-05-16T04:20:01.477Z,13.83
2018-05-16T04:22:29.187Z,13.67
2018-05-16T04:24:57.006Z,13.61
2018-05-16T04:27:24.872Z,13.73
2018-05-16T04:29:52.586Z,13.72
2018-05-16T04:32:20.534Z,13.60
2018-05-16T04:34:48.268Z,13.44
2018-05-16T04:37:15.982Z,13.42
2018-05-16T04:39:43.750Z,13.50
2018-05-16T04:42:11.561Z,13.63
2018-05-16T04:44:39.220Z,13.91
2018-05-16T04:47:06.886Z,14.09
2018-05-16T04:49:34.549Z,14.39
2018-05-16T04:52:02.419Z,14.50
2018-05-16T04:54:30.180Z,14.62
2018-05-16T04:56:58.047Z,14.69
2018-05-16T04:59:25.811Z,14.65
2018-05-16T05:01:53.783Z,14.48
2018-05-16T05:04:21.544Z,14.41
2018-05-16T05:06:49.514Z,14.35
2018-05-16T05:09:17.347Z,14.41
2018-05-16T05:11:45.044Z,14.39
2018-05-16T05:14:12.909Z,14.54
2018-05-16T05:16:40.776Z,14.76
2018-05-16T05:19:08.444Z,14.87
2018-05-16T05:21:36.203Z,14.73
2018-05-16T05:24:03.868Z,14.52
2018-05-16T05:26:31.691Z,14.71
2018-05-16T05:28:59.408Z,15.02
2018-05-16T05:31:27.160Z,15.45
2018-05-16T05:33:54.921Z,15.63
2018-05-16T05:36:22.585Z,16.07
2018-05-16T05:38:50.401Z,16.13
2018-05-16T05:41:18.229Z,16.01
2018-05-16T05:43:45.963Z,15.85
2018-05-16T05:46:13.746Z,16.05
2018-05-16T05:48:41.630Z,16.25
2018-05-16T05:51:09.278Z,16.47
2018-05-16T05:53:37.099Z,16.42
2018-05-16T05:56:04.906Z,16.20
2018-05-16T05:58:32.672Z,15.90
2018-05-16T06:01:00.375Z,15.52
2018-05-16T06:03:28.204Z,15.65
2018-05-16T06:05:55.932Z,15.72
2018-05-16T06:08:23.711Z,15.66
2018-05-16T06:10:51.441Z,15.44
2018-05-16T06:13:19.099Z,15.37
2018-05-16T06:15:46.926Z,15.16
2018-05-16T06:18:14.788Z,15.17
2018-05-16T06:20:43.166Z,14.99
2018-05-16T06:23:10.930Z,15.07
2018-05-16T06:25:38.641Z,14.94
2018-05-16T06:28:06.504Z,14.97
2018-05-16T06:30:34.373Z,15.03
2018-05-16T06:33:02.188Z,15.10
2018-05-16T06:35:29.962Z,15.14
2018-05-16T06:37:57.724Z,15.21
2018-05-16T06:40:25.666Z,15.18
2018-05-16T06:42:53.554Z,15.33
2018-05-16T06:45:21.946Z,15.92
2018-05-16T06:47:49.711Z,16.27
2018-05-16T06:50:17.570Z,16.93
2018-05-16T06:52:45.216Z,17.39
2018-05-16T06:55:13.091Z,17.70
2018-05-16T06:57:40.864Z,17.48
2018-05-16T07:00:08.627Z,17.19
2018-05-16T07:02:36.318Z,17.16
2018-05-16T07:05:04.054Z,18.10
2018-05-16T07:07:31.711Z,20.04
2018-05-16T07:09:59.370Z,20.78
2018-05-16T07:12:27.107Z,21.85
2018-05-16T07:14:54.872Z,22.45
2018-05-16T07:17:22.773Z,22.60
2018-05-16T07:19:50.543Z,22.08
2018-05-16T07:22:18.164Z,22.39
2018-05-16T07:24:45.964Z,22.13
2018-05-16T07:27:13.627Z,20.97
2018-05-16T07:29:41.283Z,20.55
2018-05-16T07:32:08.951Z,19.33
2018-05-16T07:34:36.711Z,19.16
2018-05-16T07:37:04.586Z,18.74
2018-05-16T07:39:32.349Z,18.01
2018-05-16T07:42:00.219Z,17.74
2018-05-16T07:44:27.987Z,17.65
2018-05-16T07:46:55.841Z,17.74
2018-05-16T07:49:23.609Z,19.55
2018-05-16T07:51:51.271Z,20.42
2018-05-16T07:54:18.940Z,22.61
2018-05-16T07:56:46.757Z,22.47
2018-05-16T07:59:14.464Z,22.93
2018-05-16T08:01:42.193Z,24.15
2018-05-16T08:04:10.098Z,23.53
2018-05-16T08:06:37.860Z,21.79
2018-05-16T08:09:05.695Z,20.83
2018-05-16T08:11:33.415Z,19.98
2018-05-16T08:14:01.155Z,19.72
2018-05-16T08:16:28.918Z,19.60
2018-05-16T08:18:56.574Z,19.63
2018-05-16T08:21:24.237Z,19.87
2018-05-16T08:23:52.007Z,19.74
2018-05-16T08:26:19.872Z,19.60
2018-05-16T08:28:47.644Z,19.81
2018-05-16T08:31:15.458Z,19.51
2018-05-16T08:33:43.271Z,19.09
2018-05-16T08:36:11.139Z,19.25
2018-05-16T08:38:38.871Z,19.15
2018-05-16T08:41:06.665Z,19.43
2018-05-16T08:43:34.431Z,19.44
2018-05-16T08:46:02.206Z,19.15
2018-05-16T08:48:29.956Z,19.15
2018-05-16T08:50:57.723Z,19.02
2018-05-16T08:53:25.540Z,18.80
2018-05-16T08:55:53.210Z,18.66
2018-05-16T08:58:21.015Z,18.61
2018-05-16T09:00:48.785Z,18.53
2018-05-16T09:03:16.652Z,18.53
2018-05-16T09:05:44.413Z,18.67
2018-05-16T09:08:12.285Z,18.72
2018-05-16T09:10:39.915Z,18.87
2018-05-16T09:13:07.749Z,18.90
2018-05-16T09:15:35.574Z,19.65
2018-05-16T09:18:03.237Z,19.57
2018-05-16T09:20:31.115Z,19.39
2018-05-16T09:22:59.176Z,19.23
2018-05-16T09:25:26.836Z,19.01
2018-05-16T09:27:54.553Z,18.96
2018-05-16T09:30:22.172Z,18.95
2018-05-16T09:32:49.831Z,19.05
2018-05-16T09:35:17.685Z,19.25
2018-05-16T09:37:45.356Z,19.76
2018-05-16T09:40:13.074Z,20.17
2018-05-16T09:42:40.878Z,20.58
2018-05-16T09:45:08.751Z,20.54
2018-05-16T09:47:37.644Z,20.48
2018-05-16T09:50:06.701Z,20.57
2018-05-16T09:52:34.604Z,20.84
2018-05-16T09:55:02.537Z,20.58
2018-05-16T09:57:30.251Z,20.53
2018-05-16T09:59:58.096Z,20.44
2018-05-16T10:02:25.787Z,20.23
2018-05-16T10:04:53.634Z,20.51
2018-05-16T10:07:21.297Z,21.35
2018-05-16T10:09:49.227Z,21.61
2018-05-16T10:12:16.928Z,22.10
2018-05-16T10:14:44.770Z,22.71
2018-05-16T10:17:12.450Z,23.32
2018-05-16T10:19:40.219Z,23.18
2018-05-16T10:22:07.923Z,23.34
2018-05-16T10:24:35.747Z,23.15
2018-05-16T10:27:03.416Z,23.03
2018-05-16T10:29:31.277Z,23.57
2018-05-16T10:31:59.038Z,23.77
2018-05-16T10:34:26.921Z,23.58
2018-05-16T10:36:54.568Z,22.44
2018-05-16T10:39:22.392Z,22.30
2018-05-16T10:41:50.097Z,22.13
2018-05-16T10:44:17.926Z,21.97
2018-05-16T10:46:45.544Z,22.40
2018-05-16T10:49:13.396Z,22.46
2018-05-16T10:51:41.161Z,22.90
2018-05-16T10:54:09.141Z,23.43
2018-05-16T10:56:36.890Z,23.58
2018-05-16T10:59:04.959Z,23.47
2018-05-16T11:01:32.720Z,23.53
2018-05-16T11:04:00.793Z,23.75
2018-05-16T11:06:28.684Z,24.10
2018-05-16T11:08:57.343Z,23.91
2018-05-16T11:11:25.215Z,23.99
2018-05-16T11:13:53.202Z,23.76
2018-05-16T11:16:21.621Z,23.94
2018-05-16T11:18:49.535Z,24.54
2018-05-16T11:21:17.568Z,23.76
2018-05-16T11:23:46.132Z,22.93
2018-05-16T11:26:13.849Z,22.71
2018-05-16T11:28:41.556Z,22.72
2018-05-16T11:31:09.795Z,22.78
2018-05-16T11:33:37.657Z,23.05
2018-05-16T11:36:05.556Z,22.85
2018-05-16T11:38:33.282Z,23.54
2018-05-16T11:41:01.052Z,24.14
2018-05-16T11:43:28.711Z,24.62
2018-05-16T11:45:56.374Z,23.93
2018-05-16T11:48:24.142Z,23.78
2018-05-16T11:50:51.804Z,23.54
2018-05-16T11:53:19.569Z,23.70
2018-05-16T11:55:47.338Z,24.32
2018-05-16T11:58:15.403Z,24.52
2018-05-16T12:00:43.226Z,24.48
2018-05-16T12:03:11.038Z,24.55
2018-05-16T12:05:38.761Z,24.49
2018-05-16T12:08:06.564Z,24.56
2018-05-16T12:10:34.171Z,24.28
2018-05-16T12:13:01.828Z,23.95
2018-05-16T12:15:29.458Z,24.21
2018-05-16T12:17:57.110Z,25.10
2018-05-16T12:20:24.876Z,25.73
2018-05-16T12:22:52.744Z,25.03
2018-05-16T12:25:20.404Z,24.13
2018-05-16T12:27:48.169Z,23.66
2018-05-16T12:30:15.932Z,23.24
2018-05-16T12:32:43.869Z,22.91
2018-05-16T12:35:11.668Z,22.69
2018-05-16T12:37:39.435Z,22.50
2018-05-16T12:40:07.298Z,22.44
2018-05-16T12:42:35.236Z,22.55
2018-05-16T12:45:02.929Z,22.49
2018-05-16T12:47:30.748Z,22.61
2018-05-16T12:49:58.460Z,22.91
2018-05-16T12:52:26.222Z,23.43
2018-05-16T12:54:53.995Z,23.49
2018-05-16T12:57:21.747Z,23.61
2018-05-16T12:59:49.458Z,23.98
2018-05-16T13:02:17.179Z,23.93
2018-05-16T13:04:44.835Z,23.57
2018-05-16T13:07:12.658Z,23.57
2018-05-16T13:09:40.475Z,23.75
2018-05-16T13:12:08.126Z,23.48
2018-05-16T13:14:35.858Z,23.54
2018-05-16T13:17:03.664Z,23.12
2018-05-16T13:19:31.427Z,22.58
2018-05-16T13:21:59.091Z,22.62
2018-05-16T13:24:26.959Z,22.96
2018-05-16T13:26:54.740Z,23.11
2018-05-16T13:29:22.491Z,23.62
2018-05-16T13:31:50.306Z,22.88
2018-05-16T13:34:18.222Z,21.97
2018-05-16T13:36:45.938Z,22.11
2018-05-16T13:39:13.748Z,22.65
2018-05-16T13:41:41.513Z,22.55
2018-05-16T13:44:09.177Z,22.48
2018-05-16T13:46:36.940Z,22.20
2018-05-16T13:49:05.011Z,22.29
2018-05-16T13:51:32.715Z,22.11
2018-05-16T13:54:00.433Z,21.78
2018-05-16T13:56:28.144Z,21.98
2018-05-16T13:58:55.964Z,22.24
2018-05-16T14:01:23.677Z,22.59
2018-05-16T14:03:51.496Z,22.82
2018-05-16T14:06:19.363Z,22.98
2018-05-16T14:08:47.131Z,22.86
2018-05-16T14:11:14.997Z,22.67
2018-05-16T14:13:42.839Z,22.35
2018-05-16T14:16:10.524Z,22.25
2018-05-16T14:18:38.288Z,22.11
2018-05-16T14:21:06.067Z,21.26
2018-05-16T14:23:33.937Z,19.93
2018-05-16T14:26:01.786Z,19.30
2018-05-16T14:28:29.448Z,19.02
2018-05-16T14:30:57.230Z,18.78
2018-05-16T14:33:25.721Z,18.48
2018-05-16T14:35:53.905Z,18.61
2018-05-16T14:38:21.742Z,18.72
2018-05-16T14:40:49.476Z,18.85
2018-05-16T14:43:17.377Z,19.14
2018-05-16T14:45:45.233Z,19.39
2018-05-16T14:48:13.101Z,19.45
2018-05-16T14:50:40.867Z,19.60
2018-05-16T14:53:08.637Z,19.66
2018-05-16T14:55:36.459Z,19.56
2018-05-16T14:58:04.366Z,19.78
2018-05-16T15:00:32.167Z,19.72
2018-05-16T15:02:59.995Z,19.84
2018-05-16T15:05:27.822Z,20.05
2018-05-16T15:07:55.626Z,20.05
2018-05-16T15:10:23.355Z,20.14
2018-05-16T15:12:51.264Z,20.11
2018-05-16T15:15:19.025Z,19.99
2018-05-16T15:17:46.891Z,19.91
2018-05-16T15:20:14.595Z,20.02
2018-05-16T15:22:42.245Z,20.25
2018-05-16T15:25:09.980Z,20.28
2018-05-16T15:27:37.847Z,20.22
2018-05-16T15:30:05.918Z,20.44
2018-05-16T15:32:33.567Z,20.47
2018-05-16T15:35:01.205Z,20.73
2018-05-16T15:37:28.905Z,21.06
2018-05-16T15:39:56.669Z,21.38
2018-05-16T15:42:24.434Z,21.62
2018-05-16T15:44:52.140Z,21.55
2018-05-16T15:47:20.065Z,21.14
2018-05-16T15:49:47.932Z,21.11
2018-05-16T15:52:15.694Z,21.33
2018-05-16T15:54:43.463Z,21.46
2018-05-16T15:57:11.329Z,21.90
2018-05-16T15:59:39.052Z,22.08
2018-05-16T16:02:07.033Z,20.95
2018-05-16T16:04:34.935Z,20.12
2018-05-16T16:07:03.001Z,20.79
2018-05-16T16:09:30.764Z,21.14
2018-05-16T16:11:58.631Z,20.78
2018-05-16T16:14:26.501Z,20.30
2018-05-16T16:16:54.163Z,19.94
2018-05-16T16:19:21.923Z,20.09
2018-05-16T16:21:49.815Z,20.91
2018-05-16T16:24:17.656Z,21.19
2018-05-16T16:26:45.374Z,19.91
2018-05-16T16:29:13.186Z,20.65
2018-05-16T16:31:40.879Z,21.16
2018-05-16T16:34:08.716Z,21.62
2018-05-16T16:36:36.440Z,21.90
2018-05-16T16:39:04.414Z,21.78
2018-05-16T16:41:32.215Z,21.73
2018-05-16T16:44:00.086Z,21.61
2018-05-16T16:46:27.808Z,21.75
2018-05-16T16:48:55.814Z,21.78
2018-05-16T16:51:23.784Z,21.85
2018-05-16T16:53:51.651Z,22.03
2018-05-16T16:56:19.381Z,21.70
2018-05-16T16:58:47.181Z,21.66
2018-05-16T17:01:14.946Z,21.61
2018-05-16T17:03:42.752Z,21.52
2018-05-16T17:06:10.475Z,21.26
2018-05-16T17:08:38.237Z,21.25
2018-05-16T17:11:05.904Z,21.26
2018-05-16T17:13:33.766Z,21.17
2018-05-16T17:16:02.749Z,21.15
2018-05-16T17:18:30.476Z,20.96
2018-05-16T17:20:58.295Z,20.69
2018-05-16T17:23:26.058Z,20.68
2018-05-16T17:25:54.966Z,20.65
2018-05-16T17:28:22.722Z,20.52
2018-05-16T17:30:50.579Z,20.49
2018-05-16T17:33:18.341Z,20.56
2018-05-16T17:35:46.217Z,20.31
2018-05-16T17:38:13.869Z,20.29
2018-05-16T17:40:41.706Z,20.30
2018-05-16T17:43:09.396Z,20.31
2018-05-16T17:45:37.266Z,20.38
2018-05-16T17:48:05.036Z,20.32
2018-05-16T17:50:32.875Z,20.44
2018-05-16T17:53:00.764Z,20.55
2018-05-16T17:55:28.482Z,20.51
2018-05-16T17:57:56.199Z,20.35
2018-05-16T18:00:23.992Z,20.36
2018-05-16T18:02:51.822Z,20.19
2018-05-16T18:05:19.546Z,20.22
2018-05-16T18:07:47.352Z,20.29
2018-05-16T18:10:15.320Z,20.19
2018-05-16T18:12:43.088Z,19.94
2018-05-16T18:15:22.847Z,19.91
2018-05-16T18:17:50.499Z,19.93
2018-05-16T18:20:18.361Z,19.91
2018-05-16T18:22:46.126Z,19.86
2018-05-16T18:25:13.835Z,19.86
2018-05-16T18:27:41.494Z,19.65
2018-05-16T18:30:09.212Z,19.53
2018-05-16T18:32:36.879Z,19.44
2018-05-16T18:35:04.539Z,19.55
2018-05-16T18:37:32.186Z,19.53
2018-05-16T18:39:59.976Z,19.54
2018-05-16T18:42:27.865Z,19.40
2018-05-16T18:44:55.600Z,19.29
2018-05-16T18:47:23.465Z,19.26
2018-05-16T18:49:51.184Z,19.23
2018-05-16T18:52:18.844Z,19.19
2018-05-16T18:54:46.670Z,19.05
2018-05-16T18:57:14.479Z,18.98
2018-05-16T18:59:42.246Z,18.92
2018-05-16T19:02:09.898Z,18.85
2018-05-16T19:04:37.518Z,18.79
2018-05-16T19:07:05.263Z,18.79
2018-05-16T19:09:32.926Z,18.63
2018-05-16T19:12:00.586Z,18.57
2018-05-16T19:14:28.368Z,18.63
2018-05-16T19:16:56.228Z,18.70
2018-05-16T19:19:24.094Z,18.67
2018-05-16T19:21:51.753Z,18.60
2018-05-16T19:24:19.424Z,18.65
2018-05-16T19:26:47.075Z,18.67
2018-05-16T19:29:14.896Z,18.70
2018-05-16T19:31:42.711Z,18.69
2018-05-16T19:34:10.433Z,18.59
2018-05-16T19:36:38.241Z,18.44
2018-05-16T19:39:06.039Z,18.44
2018-05-16T19:41:33.769Z,18.42
2018-05-16T19:44:01.527Z,18.40
2018-05-16T19:46:29.406Z,18.46
2018-05-16T19:48:57.453Z,18.54
2018-05-16T19:51:25.239Z,18.42
2018-05-16T19:53:53.104Z,18.40
2018-05-16T19:56:20.795Z,18.35
2018-05-16T19:58:48.635Z,18.33
2018-05-16T20:01:16.396Z,18.29
2018-05-16T20:03:44.266Z,18.31
2018-05-16T20:06:11.984Z,18.27
2018-05-16T20:08:39.794Z,18.18
2018-05-16T20:11:07.659Z,18.09
2018-05-16T20:13:35.526Z,18.00
2018-05-16T20:16:03.266Z,17.97
2018-05-16T20:18:31.011Z,17.81
2018-05-16T20:20:58.819Z,17.87
2018-05-16T20:23:26.482Z,17.76
2018-05-16T20:25:54.247Z,17.72
2018-05-16T20:28:22.012Z,17.75
2018-05-16T20:30:49.981Z,17.65
2018-05-16T20:33:17.742Z,17.63
2018-05-16T20:35:45.613Z,17.54
2018-05-16T20:38:13.377Z,17.59
2018-05-16T20:40:41.244Z,17.61
2018-05-16T20:43:08.910Z,17.53
2018-05-16T20:45:36.671Z,17.62
2018-05-16T20:48:04.537Z,17.57
2018-05-16T20:50:32.404Z,17.60
2018-05-16T20:53:00.067Z,17.59
2018-05-16T20:55:27.932Z,17.54
2018-05-16T20:57:55.653Z,17.49
2018-05-16T21:00:23.463Z,17.55
2018-05-16T21:02:51.331Z,17.53
2018-05-16T21:05:19.277Z,17.49
2018-05-16T21:07:47.077Z,17.54
2018-05-16T21:10:14.826Z,17.56
2018-05-16T21:12:42.594Z,17.51
2018-05-16T21:15:10.460Z,17.57
2018-05-16T21:17:38.121Z,17.61
2018-05-16T21:20:06.189Z,17.54
2018-05-16T21:22:33.958Z,17.50
2018-05-16T21:25:01.617Z,17.55
2018-05-16T21:27:29.299Z,17.44
2018-05-16T21:29:56.935Z,17.45
2018-05-16T21:32:24.802Z,17.49
2018-05-16T21:34:52.592Z,17.49
2018-05-16T21:37:20.442Z,17.42
2018-05-16T21:39:48.313Z,17.49
2018-05-16T21:42:16.132Z,17.43
2018-05-16T21:44:44.273Z,17.37
2018-05-16T21:47:12.832Z,17.34
2018-05-16T21:49:40.487Z,17.32
2018-05-16T21:52:08.258Z,17.29
2018-05-16T21:54:36.083Z,17.23
2018-05-16T21:57:04.716Z,17.16
2018-05-16T21:59:32.419Z,17.21
2018-05-16T22:02:00.134Z,17.14
2018-05-16T22:04:28.104Z,17.19
2018-05-16T22:06:55.864Z,17.15
2018-05-16T22:09:23.685Z,17.10
2018-05-16T22:11:51.705Z,17.06
2018-05-16T22:14:19.469Z,17.03
2018-05-16T22:16:47.229Z,17.00
2018-05-16T22:19:14.952Z,17.05
2018-05-16T22:21:42.766Z,16.92
2018-05-16T22:24:10.485Z,16.84
2018-05-16T22:26:38.191Z,16.78
2018-05-16T22:29:05.895Z,16.90
2018-05-16T22:31:39.349Z,16.89
2018-05-16T22:34:12.640Z,16.73
2018-05-16T22:36:46.011Z,16.72
2018-05-16T22:39:19.227Z,16.69
2018-05-16T22:41:52.529Z,16.64
2018-05-16T22:44:20.292Z,16.40
2018-05-16T22:46:48.110Z,16.46
2018-05-16T22:49:15.924Z,16.30
2018-05-16T22:51:43.793Z,16.24
2018-05-16T22:54:11.506Z,16.30
2018-05-16T22:56:39.319Z,16.36
2018-05-16T22:59:07.144Z,16.40
2018-05-16T23:01:34.813Z,16.29
2018-05-16T23:04:02.578Z,16.37
2018-05-16T23:06:30.347Z,16.43
2018-05-16T23:08:58.085Z,16.48
2018-05-16T23:11:25.805Z,16.24
2018-05-16T23:13:53.619Z,16.24
2018-05-16T23:16:21.440Z,16.04
2018-05-16T23:18:49.409Z,16.15
2018-05-16T23:21:17.272Z,16.21
2018-05-16T23:23:45.038Z,16.14
2018-05-16T23:26:12.803Z,16.09
2018-05-16T23:28:40.669Z,16.06
2018-05-16T23:31:08.382Z,16.03
2018-05-16T23:33:36.301Z,15.93
2018-05-16T23:36:04.170Z,15.88
2018-05-16T23:38:32.041Z,15.85
2018-05-16T23:40:59.876Z,15.73
2018-05-16T23:43:27.668Z,15.75
2018-05-16T23:45:55.432Z,15.73
2018-05-16T23:48:23.153Z,15.82
2018-05-16T23:50:50.851Z,15.78
2018-05-16T23:53:18.685Z,15.74
2018-05-16T23:55:46.452Z,15.78
2018-05-16T23:58:14.250Z,15.77
